This is the latest recevied weather packets stored in our database for station/object KI5GCD-13. If no packets are shown the sender has not sent any weather packets the latest 10 day(s).
| Time | Temp. | Humidity | Pressure | Rain* | Wind** | Luminosity | Snow |
|---|---|---|---|---|---|---|---|
| 1777837187 | 25.56° C | 48% | 1011.3 hPa | 0 mm | 0.45 m/s, 255° | - | - |
| 1777836887 | 25.56° C | 44% | 1011.4 hPa | 0 mm | 3.13 m/s, 237° | - | - |
| 1777836588 | 25.56° C | 44% | 1011.3 hPa | 0 mm | 3.13 m/s, 186° | - | - |
| 1777836287 | 25.56° C | 44% | 1011.5 hPa | 0 mm | 1.34 m/s, 253° | - | - |
| 1777835987 | 25° C | 46% | 1011.3 hPa | 0 mm | 1.34 m/s, 236° | - | - |
| 1777835687 | 25.56° C | 47% | 1011.5 hPa | 0 mm | 0.89 m/s, 250° | - | - |
| 1777835387 | 25.56° C | 45% | 1011.6 hPa | 0 mm | 2.24 m/s, 204° | - | - |
| 1777835087 | 25.56° C | 46% | 1011.7 hPa | 0 mm | 0.89 m/s, 230° | - | - |
| 1777834788 | 25.56° C | 51% | 1011.7 hPa | 0 mm | 0.89 m/s, 235° | - | - |
| 1777834487 | 25° C | 44% | 1011.7 hPa | 0 mm | 0.45 m/s, 342° | - | - |
| 1777834187 | 25° C | 46% | 1011.8 hPa | 0 mm | 0.89 m/s, 235° | - | - |
| 1777833887 | 25° C | 47% | 1011.7 hPa | 0 mm | 0.89 m/s, 249° | - | - |
| 1777833587 | 25° C | 45% | 1011.9 hPa | 0 mm | 1.34 m/s, 188° | - | - |
| 1777833287 | 24.44° C | 47% | 1011.9 hPa | 0 mm | 0.89 m/s, 244° | - | - |
| 1777832987 | 24.44° C | 46% | 1011.9 hPa | 0 mm | 2.24 m/s, 229° | - | - |
| 1777832687 | 25° C | 51% | 1012 hPa | 0 mm | 0.45 m/s, 209° | - | - |
| 1777832388 | 24.44° C | 51% | 1012 hPa | 0 mm | 0.89 m/s, 234° | - | - |
| 1777832087 | 23.89° C | 48% | 1012.2 hPa | 0 mm | 0.89 m/s, 208° | - | - |
| 1777831787 | 23.89° C | 48% | 1012.3 hPa | 0 mm | 1.79 m/s, 178° | - | - |
| 1777831487 | 23.89° C | 50% | 1012.4 hPa | 0 mm | 1.79 m/s, 177° | - | - |
| 1777831187 | 23.89° C | 46% | 1012.4 hPa | 0 mm | 3.58 m/s, 219° | - | - |
| 1777830887 | 23.33° C | 49% | 1012.4 hPa | 0 mm | 1.34 m/s, 126° | - | - |
| 1777830587 | 22.78° C | 49% | 1012.7 hPa | 0 mm | 1.34 m/s, 191° | - | - |
| 1777830287 | 22.78° C | 47% | 1012.6 hPa | 0 mm | 2.24 m/s, 191° | - | - |
| 1777829987 | 23.33° C | 47% | 1012.7 hPa | 0 mm | 1.79 m/s, 306° | - | - |
* Rain latest hour (hover to see other rain measurements)
** Current wind speed in m/s (hover to see current wind gust speed)